Time;durP1;ratioP1;P1;durP2;ratioP2;P2;SDS_P1;SDS_P2;PMS_P1;PMS_P2;Temp;Humidity;BMP_temperature;BMP_pressure;BME280_temperature;BME280_humidity;BME280_pressure;Samples;Min_cycle;Max_cycle;Signal;HPM_P1;HPM_P2
2023/01/12 00:01:29;;;;;;;1.73;1.63;;;24.50;41.10;;;;;;5040105;27;92021;-59
2023/01/12 00:03:57;;;;;;;2.73;1.67;;;24.50;41.10;;;;;;5040389;27;94162;-60
2023/01/12 00:06:25;;;;;;;2.23;1.77;;;24.50;41.20;;;;;;5040497;27;94010;-60
2023/01/12 00:08:53;;;;;;;2.93;1.57;;;24.50;41.20;;;;;;5041703;27;92084;-59
2023/01/12 00:11:21;;;;;;;2.67;1.50;;;24.50;41.20;;;;;;5040038;27;92197;-60
2023/01/12 00:13:50;;;;;;;3.70;1.67;;;24.40;41.90;;;;;;5047940;27;95295;-60
2023/01/12 00:16:37;;;;;;;1.17;1.07;;;24.40;41.20;;;;;;5058434;27;94667;-60
2023/01/12 00:19:14;;;;;;;1.80;1.17;;;24.40;41.20;;;;;;5039981;27;92082;-60
2023/01/12 00:21:55;;;;;;;4.53;1.40;;;24.40;41.30;;;;;;5050257;27;92040;-61
2023/01/12 00:24:24;;;;;;;2.17;1.37;;;24.40;41.30;;;;;;5056751;27;94034;-60
2023/01/12 00:26:52;;;;;;;1.10;1.00;;;24.30;41.20;;;;;;5059897;27;92883;-60
2023/01/12 00:29:22;;;;;;;1.63;1.00;;;24.30;41.20;;;;;;5059620;27;92021;-60
2023/01/12 00:31:50;;;;;;;2.40;1.30;;;24.30;41.30;;;;;;5058452;27;91300;-60
2023/01/12 00:34:18;;;;;;;2.87;1.57;;;24.20;41.20;;;;;;5059032;27;94091;-60
2023/01/12 00:36:46;;;;;;;3.23;1.30;;;24.30;41.40;;;;;;5057910;27;92835;-60
2023/01/12 00:39:14;;;;;;;2.10;1.13;;;24.20;41.30;;;;;;5056969;27;93043;-60
2023/01/12 00:47:15;;;;;;;0.87;0.87;;;24.10;41.30;;;;;;5034798;27;93813;-61
2023/01/12 00:49:43;;;;;;;3.87;1.30;;;24.10;41.40;;;;;;5045132;27;92167;-61
2023/01/12 00:52:13;;;;;;;1.47;0.70;;;24.10;41.40;;;;;;5048604;27;92135;-60
2023/01/12 00:54:56;;;;;;;2.03;1.27;;;24.10;41.40;;;;;;5039021;27;94473;-60
2023/01/12 00:57:23;;;;;;;1.80;1.00;;;24.10;41.40;;;;;;5039683;28;92645;-60
2023/01/12 00:59:53;;;;;;;2.90;1.80;;;24.10;41.50;;;;;;5058050;27;92087;-60
2023/01/12 01:02:22;;;;;;;6.00;1.30;;;24.10;41.50;;;;;;5060010;27;92111;-61
2023/01/12 01:04:50;;;;;;;4.00;1.20;;;24.10;41.50;;;;;;5059045;27;93950;-60
2023/01/12 01:07:20;;;;;;;6.93;1.43;;;24.10;41.50;;;;;;5059249;27;96023;-59
2023/01/12 01:09:48;;;;;;;5.13;1.30;;;24.10;41.50;;;;;;5059463;27;91967;-60
2023/01/12 01:12:16;;;;;;;3.33;1.73;;;24.00;41.50;;;;;;5059249;27;92040;-59
2023/01/12 01:14:44;;;;;;;2.27;0.80;;;24.00;41.50;;;;;;5058567;27;94080;-61
2023/01/12 01:17:14;;;;;;;1.33;0.80;;;24.00;41.50;;;;;;5059004;27;94010;-60
2023/01/12 01:19:42;;;;;;;0.97;0.70;;;24.00;42.20;;;;;;5054667;27;92066;-60
2023/01/12 01:22:11;;;;;;;2.83;1.00;;;23.90;41.50;;;;;;5058903;27;91444;-61
2023/01/12 01:24:39;;;;;;;2.83;1.10;;;24.00;41.60;;;;;;5048257;27;94338;-61
2023/01/12 01:27:07;;;;;;;2.47;0.93;;;23.90;41.50;;;;;;5048932;27;92624;-61
2023/01/12 01:29:35;;;;;;;1.00;0.90;;;23.90;41.60;;;;;;5055483;27;92988;-61
2023/01/12 01:32:03;;;;;;;0.97;0.87;;;23.90;41.60;;;;;;5062325;27;92121;-61
2023/01/12 01:34:32;;;;;;;1.10;1.10;;;23.90;41.60;;;;;;5072235;27;94384;-61
2023/01/12 01:37:00;;;;;;;1.87;1.17;;;23.90;41.70;;;;;;5058082;27;93685;-61
2023/01/12 01:39:28;;;;;;;5.67;1.00;;;23.80;41.60;;;;;;5050515;27;91894;-61
2023/01/12 01:41:56;;;;;;;1.37;0.60;;;23.80;41.60;;;;;;5047648;27;92984;-61
2023/01/12 01:44:48;;;;;;;2.03;0.93;;;23.90;41.70;;;;;;5076031;27;94223;-61
2023/01/12 01:47:21;;;;;;;1.90;0.83;;;23.80;41.70;;;;;;5072710;27;92799;-61
2023/01/12 01:49:52;;;;;;;2.07;1.33;;;23.80;41.70;;;;;;5052813;27;92040;-61
2023/01/12 01:52:21;;;;;;;2.10;1.37;;;23.70;41.70;;;;;;5054464;27;92174;-61
2023/01/12 01:54:51;;;;;;;2.90;0.90;;;23.80;41.80;;;;;;5057387;27;94242;-62
2023/01/12 01:57:19;;;;;;;4.50;1.30;;;23.70;41.70;;;;;;5056796;27;94912;-61
2023/01/12 01:59:49;;;;;;;3.97;1.20;;;23.70;41.80;;;;;;5049859;27;91914;-61
2023/01/12 02:02:17;;;;;;;2.80;1.17;;;23.70;41.80;;;;;;5038335;27;92100;-61
2023/01/12 02:04:45;;;;;;;1.57;1.10;;;23.70;41.80;;;;;;5056683;27;94179;-61
2023/01/12 02:07:14;;;;;;;2.57;1.00;;;23.70;41.80;;;;;;5043386;27;93973;-61
2023/01/12 02:09:42;;;;;;;4.37;1.07;;;23.70;41.90;;;;;;5042762;27;92256;-61
2023/01/12 02:17:47;;;;;;;8.00;1.20;;;23.60;42.20;;;;;;5061946;27;92757;-61
2023/01/12 02:20:48;;;;;;;2.10;1.17;;;23.60;41.90;;;;;;5062339;27;93479;-61
2023/01/12 02:23:40;;;;;;;2.13;0.87;;;23.60;42.20;;;;;;5062483;27;92146;-61
2023/01/12 02:26:35;;;;;;;1.03;0.60;;;23.60;42.00;;;;;;5061957;27;94336;-61
2023/01/12 02:29:40;;;;;;;2.27;0.67;;;23.50;42.00;;;;;;5061996;27;93807;-61
2023/01/12 02:32:12;;;;;;;1.03;0.80;;;23.50;42.00;;;;;;5062411;27;92185;-60
2023/01/12 02:34:44;;;;;;;1.10;0.77;;;23.50;42.00;;;;;;5062356;27;92077;-60
2023/01/12 02:37:14;;;;;;;3.30;1.30;;;23.50;42.00;;;;;;5061397;27;94260;-60
2023/01/12 02:39:45;;;;;;;4.10;1.37;;;23.50;42.00;;;;;;5062315;27;92929;-59
2023/01/12 02:45:05;;;;;;;2.63;1.00;;;23.50;42.10;;;;;;5062208;27;92121;-60
2023/01/12 02:47:37;;;;;;;0.97;0.80;;;23.50;42.10;;;;;;5061073;27;94011;-60
2023/01/12 02:50:06;;;;;;;4.60;0.97;;;23.40;42.10;;;;;;5061716;27;94712;-60
2023/01/12 02:52:34;;;;;;;2.73;1.13;;;23.40;42.10;;;;;;5062122;27;91817;-60
2023/01/12 02:55:02;;;;;;;2.07;0.93;;;23.40;42.70;;;;;;5061702;27;92110;-60
2023/01/12 02:57:30;;;;;;;0.83;0.83;;;23.40;42.10;;;;;;5061254;27;93190;-60
2023/01/12 02:59:58;;;;;;;2.47;1.03;;;23.40;42.10;;;;;;5047445;27;93850;-60
2023/01/12 03:02:27;;;;;;;1.50;0.97;;;23.40;42.10;;;;;;5061408;27;92045;-59
2023/01/12 03:04:56;;;;;;;2.33;0.70;;;23.30;42.10;;;;;;5053029;27;91353;-61
2023/01/12 03:07:34;;;;;;;1.60;0.93;;;23.30;42.10;;;;;;5041136;27;93641;-60
2023/01/12 03:10:12;;;;;;;0.73;0.73;;;23.30;42.10;;;;;;5051587;27;94671;-60
2023/01/12 03:12:40;;;;;;;2.57;1.37;;;23.30;42.20;;;;;;5040014;27;94978;-60
2023/01/12 03:15:09;;;;;;;3.50;1.20;;;23.30;42.20;;;;;;5042029;27;92136;-60
2023/01/12 03:17:39;;;;;;;3.37;1.13;;;23.30;42.20;;;;;;5059803;27;94400;-60
2023/01/12 03:20:11;;;;;;;2.13;0.90;;;23.30;42.30;;;;;;5058221;27;93910;-60
2023/01/12 03:22:39;;;;;;;2.87;1.07;;;23.30;42.30;;;;;;5041204;27;91975;-62
2023/01/12 03:25:09;;;;;;;2.40;0.90;;;23.30;42.30;;;;;;5043820;27;92060;-61
2023/01/12 03:27:38;;;;;;;3.53;0.97;;;23.20;42.90;;;;;;5053061;27;93122;-61
2023/01/12 03:30:07;;;;;;;1.37;0.70;;;23.30;42.40;;;;;;5040804;27;93980;-60
2023/01/12 03:32:35;;;;;;;1.43;0.70;;;23.20;42.30;;;;;;5047778;27;92067;-60
2023/01/12 03:35:07;;;;;;;3.23;1.10;;;23.20;42.30;;;;;;5060977;27;92085;-61
2023/01/12 03:37:38;;;;;;;2.70;1.40;;;23.20;42.30;;;;;;5045827;27;95144;-59
2023/01/12 03:40:08;;;;;;;4.17;1.07;;;23.20;42.40;;;;;;5050685;27;94779;-59
2023/01/12 03:42:38;;;;;;;1.07;0.97;;;23.20;42.40;;;;;;5046278;27;92013;-60
2023/01/12 03:45:10;;;;;;;2.33;1.07;;;23.20;42.40;;;;;;5043264;27;92042;-60
2023/01/12 03:47:38;;;;;;;1.33;0.80;;;23.20;42.40;;;;;;5054601;27;94304;-60
2023/01/12 03:50:07;;;;;;;3.03;1.03;;;23.20;42.40;;;;;;5041562;27;92715;-60
2023/01/12 03:52:36;;;;;;;1.67;1.03;;;23.10;42.40;;;;;;5043424;27;92152;-60
2023/01/12 03:55:05;;;;;;;1.37;1.07;;;23.10;42.40;;;;;;5061109;27;91308;-60
2023/01/12 03:57:33;;;;;;;4.60;1.07;;;23.10;42.50;;;;;;5060236;27;93214;-60
2023/01/12 04:00:01;;;;;;;2.37;0.73;;;23.10;42.50;;;;;;5058495;27;92754;-60
2023/01/12 04:02:29;;;;;;;3.90;0.93;;;23.10;42.50;;;;;;5058236;27;93015;-60
2023/01/12 04:04:58;;;;;;;4.00;1.00;;;23.10;42.50;;;;;;5058686;27;92653;-60
2023/01/12 04:07:26;;;;;;;1.73;1.07;;;23.10;42.50;;;;;;5057335;27;94153;-60
2023/01/12 04:09:55;;;;;;;2.30;1.33;;;23.10;42.60;;;;;;5051105;27;93813;-60
2023/01/12 04:12:23;;;;;;;0.70;0.70;;;23.00;42.50;;;;;;5040144;27;92141;-60
2023/01/12 04:14:51;;;;;;;2.83;1.40;;;23.00;42.50;;;;;;5052427;27;91972;-60
2023/01/12 04:17:23;;;;;;;2.77;0.60;;;23.00;42.50;;;;;;5047875;27;94226;-60
2023/01/12 04:19:51;;;;;;;0.93;0.70;;;23.00;42.50;;;;;;5055930;27;92875;-60
2023/01/12 04:25:07;;;;;;;1.57;1.17;;;23.00;42.60;;;;;;5040765;27;92118;-60
2023/01/12 04:27:36;;;;;;;1.13;0.73;;;22.90;42.60;;;;;;5038130;27;94062;-60
2023/01/12 04:30:05;;;;;;;1.17;0.57;;;22.90;42.60;;;;;;5039991;27;97295;-60
2023/01/12 04:32:33;;;;;;;3.40;0.67;;;22.90;42.60;;;;;;5042079;27;92143;-60
2023/01/12 04:35:01;;;;;;;2.57;0.90;;;22.90;42.70;;;;;;5059770;27;92695;-60
2023/01/12 04:37:31;;;;;;;1.43;0.80;;;22.90;42.70;;;;;;5058027;27;94276;-60
2023/01/12 04:39:59;;;;;;;3.20;0.83;;;22.90;42.70;;;;;;5051404;27;93843;-60
2023/01/12 04:45:13;;;;;;;2.87;0.57;;;22.90;42.70;;;;;;5048335;27;91380;-60
2023/01/12 04:47:41;;;;;;;0.67;0.67;;;22.90;42.80;;;;;;5048651;27;94299;-60
2023/01/12 04:50:10;;;;;;;0.30;0.30;;;22.80;42.70;;;;;;5046593;27;92729;-60
2023/01/12 04:52:38;;;;;;;0.77;0.63;;;22.80;42.80;;;;;;5039169;27;92989;-60
2023/01/12 04:55:06;;;;;;;0.50;0.50;;;22.80;42.80;;;;;;5042596;27;94318;-60
2023/01/12 04:57:35;;;;;;;2.40;0.90;;;22.80;42.80;;;;;;5059945;27;93161;-60
2023/01/12 05:00:04;;;;;;;0.90;0.57;;;22.80;42.80;;;;;;5045595;27;92773;-60
2023/01/12 05:02:32;;;;;;;0.60;0.60;;;22.80;42.80;;;;;;5040419;27;92077;-60
2023/01/12 05:05:00;;;;;;;0.93;0.67;;;22.80;42.90;;;;;;5059944;27;92038;-60
2023/01/12 05:07:28;;;;;;;1.13;0.70;;;22.80;42.80;;;;;;5056401;27;94165;-60
2023/01/12 05:12:43;;;;;;;1.10;0.90;;;22.80;42.90;;;;;;5050582;27;92147;-60
2023/01/12 05:15:11;;;;;;;2.47;0.90;;;22.80;42.90;;;;;;5047033;27;92816;-61
2023/01/12 05:17:39;;;;;;;1.47;0.70;;;22.70;42.80;;;;;;5036497;27;95251;-61
2023/01/12 05:20:08;;;;;;;0.60;0.60;;;22.70;42.90;;;;;;5039256;27;94796;-59
2023/01/12 05:22:36;;;;;;;1.83;1.27;;;22.70;42.90;;;;;;5039697;28;92024;-59
2023/01/12 05:25:05;;;;;;;1.53;0.57;;;22.70;42.90;;;;;;5038980;27;91904;-61
2023/01/12 05:27:33;;;;;;;4.10;0.77;;;22.70;42.90;;;;;;5039187;27;93302;-62
2023/01/12 05:30:03;;;;;;;1.07;0.50;;;22.70;42.90;;;;;;5038671;27;93977;-61
2023/01/12 05:32:32;;;;;;;1.33;0.70;;;22.70;42.90;;;;;;5039489;27;92480;-59
2023/01/12 05:35:00;;;;;;;0.50;0.50;;;22.70;42.90;;;;;;5039629;27;91340;-61
2023/01/12 05:37:28;;;;;;;0.77;0.53;;;22.70;42.90;;;;;;5056059;27;94170;-61
2023/01/12 05:39:56;;;;;;;0.77;0.50;;;22.60;42.90;;;;;;5058802;27;93916;-62
2023/01/12 05:45:12;;;;;;;1.37;0.57;;;22.60;43.00;;;;;;5057673;27;92074;-61
2023/01/12 05:47:40;;;;;;;2.57;0.40;;;22.60;43.00;;;;;;5058001;27;94059;-61
2023/01/12 05:50:09;;;;;;;0.40;0.40;;;22.60;43.00;;;;;;5058567;27;94194;-62
2023/01/12 05:52:37;;;;;;;2.00;0.63;;;22.60;43.00;;;;;;5049661;27;92082;-62
2023/01/12 05:55:05;;;;;;;1.27;0.50;;;22.60;43.00;;;;;;5039644;27;92189;-59
2023/01/12 05:57:33;;;;;;;1.13;0.50;;;22.50;43.00;;;;;;5038800;28;93152;-60
2023/01/12 06:00:02;;;;;;;1.40;0.70;;;22.50;43.00;;;;;;5038585;27;92940;-59
2023/01/12 06:02:31;;;;;;;0.67;0.50;;;22.50;43.00;;;;;;5039001;27;92185;-60
2023/01/12 06:04:59;;;;;;;1.47;0.50;;;22.50;43.10;;;;;;5038868;28;92021;-60
2023/01/12 06:07:27;;;;;;;1.23;0.67;;;22.50;43.10;;;;;;5037684;28;95030;-61
2023/01/12 06:09:55;;;;;;;0.90;0.43;;;22.50;43.10;;;;;;5038312;27;93820;-59
2023/01/12 06:15:10;;;;;;;0.73;0.40;;;22.50;43.20;;;;;;5050426;27;93191;-60
2023/01/12 06:17:39;;;;;;;0.30;0.30;;;22.50;43.20;;;;;;5044110;27;92946;-62
2023/01/12 06:20:09;;;;;;;1.43;0.70;;;22.50;43.20;;;;;;5039573;27;93953;-62
2023/01/12 06:22:37;;;;;;;0.53;0.50;;;22.50;43.20;;;;;;5038762;28;92067;-62
2023/01/12 06:25:06;;;;;;;2.13;0.97;;;22.50;43.30;;;;;;5038715;28;91376;-62
2023/01/12 06:27:34;;;;;;;0.90;0.40;;;22.50;43.30;;;;;;5038269;28;94333;-62
2023/01/12 06:30:03;;;;;;;1.23;0.40;;;22.50;43.30;;;;;;5037724;28;93792;-62
2023/01/12 06:32:31;;;;;;;0.60;0.60;;;22.40;43.20;;;;;;5037876;27;93010;-62
2023/01/12 06:35:02;;;;;;;4.27;1.00;;;22.40;43.20;;;;;;5037580;28;92114;-59
2023/01/12 06:37:45;;;;;;;1.43;0.60;;;22.40;43.90;;;;;;5037402;27;94132;-62
2023/01/12 06:40:13;;;;;;;1.00;0.40;;;22.40;43.20;;;;;;5037803;27;93863;-60
2023/01/12 06:42:41;;;;;;;0.60;0.60;;;22.40;43.30;;;;;;5038121;28;92121;-61
2023/01/12 06:45:11;;;;;;;0.47;0.47;;;22.40;43.30;;;;;;5037696;28;92181;-62
2023/01/12 06:47:50;;;;;;;1.23;0.50;;;22.40;43.30;;;;;;5037517;27;94262;-62
2023/01/12 06:50:20;;;;;;;0.60;0.50;;;22.40;43.40;;;;;;5039474;27;93957;-62
2023/01/12 06:52:49;;;;;;;1.40;0.50;;;22.40;43.40;;;;;;5041795;28;92439;-62
2023/01/12 06:55:17;;;;;;;0.30;0.30;;;22.40;43.40;;;;;;5040954;27;92025;-62
2023/01/12 06:57:45;;;;;;;0.43;0.43;;;22.30;43.30;;;;;;5040297;28;95163;-60
2023/01/12 07:00:14;;;;;;;1.83;0.53;;;22.30;43.30;;;;;;5040256;28;94873;-62
2023/01/12 07:02:42;;;;;;;1.60;0.40;;;22.30;43.40;;;;;;5041645;27;92115;-60
2023/01/12 07:05:10;;;;;;;0.93;0.43;;;22.30;43.40;;;;;;5041478;28;91943;-60
2023/01/12 07:07:39;;;;;;;1.43;0.50;;;22.30;43.40;;;;;;5040076;27;94292;-60
2023/01/12 07:10:08;;;;;;;0.67;0.40;;;22.30;43.50;;;;;;5040340;27;92723;-60
2023/01/12 07:12:36;;;;;;;0.60;0.60;;;22.30;43.40;;;;;;5041308;27;92020;-61
2023/01/12 07:15:05;;;;;;;0.30;0.30;;;22.30;44.10;;;;;;5055211;27;91273;-60
2023/01/12 07:17:33;;;;;;;0.40;0.40;;;22.20;43.40;;;;;;5059756;27;94605;-60
2023/01/12 07:20:01;;;;;;;1.53;0.60;;;22.20;43.40;;;;;;5059291;27;93768;-60
2023/01/12 07:22:29;;;;;;;2.23;0.60;;;22.20;43.40;;;;;;5056916;27;93075;-60
2023/01/12 07:24:58;;;;;;;1.57;0.70;;;22.20;43.40;;;;;;5045148;27;92109;-60
2023/01/12 07:27:26;;;;;;;1.60;0.63;;;22.20;43.50;;;;;;5058714;27;94233;-60
2023/01/12 07:29:54;;;;;;;0.50;0.50;;;22.20;43.50;;;;;;5052963;27;92935;-60
2023/01/12 07:32:26;;;;;;;0.50;0.50;;;22.20;43.50;;;;;;5040547;27;92090;-60
2023/01/12 07:34:54;;;;;;;1.37;0.57;;;22.20;43.50;;;;;;5040797;27;92137;-59
2023/01/12 07:37:22;;;;;;;0.40;0.40;;;22.20;44.30;;;;;;5042155;27;94258;-61
2023/01/12 07:39:50;;;;;;;1.87;0.80;;;22.20;43.50;;;;;;5059836;27;93976;-60
2023/01/12 07:42:25;;;;;;;0.57;0.57;;;22.20;43.60;;;;;;5047512;27;92117;-61
2023/01/12 07:44:53;;;;;;;1.50;0.90;;;22.20;43.70;;;;;;5042446;27;92120;-61
2023/01/12 07:47:22;;;;;;;0.60;0.60;;;22.20;43.60;;;;;;5056658;27;94025;-61
2023/01/12 07:49:49;;;;;;;1.17;0.73;;;22.20;43.70;;;;;;5041635;27;93631;-60
2023/01/12 07:52:18;;;;;;;2.37;0.80;;;22.20;43.70;;;;;;5058845;27;92179;-61
2023/01/12 07:54:46;;;;;;;0.77;0.57;;;22.20;43.70;;;;;;5050530;27;93248;-61
2023/01/12 07:57:14;;;;;;;0.93;0.50;;;22.20;43.70;;;;;;5054460;27;93157;-60
2023/01/12 07:59:43;;;;;;;0.50;0.50;;;22.10;43.70;;;;;;5060999;27;93897;-61
2023/01/12 08:02:15;;;;;;;1.33;0.40;;;22.10;43.70;;;;;;5043240;27;92054;-61
2023/01/12 08:04:43;;;;;;;1.17;0.63;;;22.10;43.70;;;;;;5059386;27;91404;-60
2023/01/12 08:07:11;;;;;;;2.47;0.77;;;22.10;43.70;;;;;;5055083;27;94093;-61
2023/01/12 08:09:39;;;;;;;3.77;0.30;;;22.10;43.70;;;;;;5059010;27;94116;-60
2023/01/12 08:12:07;;;;;;;0.80;0.63;;;22.10;43.80;;;;;;5050123;27;93397;-60
2023/01/12 08:14:37;;;;;;;0.77;0.77;;;22.10;43.80;;;;;;5052329;27;92810;-60
2023/01/12 08:17:08;;;;;;;2.10;0.57;;;22.10;43.80;;;;;;5052160;27;94186;-61
2023/01/12 08:19:39;;;;;;;1.57;0.70;;;22.10;43.90;;;;;;5056850;27;93853;-60
2023/01/12 08:22:09;;;;;;;0.63;0.40;;;22.10;43.80;;;;;;5057961;27;92330;-60
2023/01/12 08:24:40;;;;;;;1.80;0.40;;;22.10;43.80;;;;;;5057793;27;92055;-61
2023/01/12 08:27:09;;;;;;;2.13;0.50;;;22.20;43.80;;;;;;5057858;27;93304;-60
2023/01/12 08:29:39;;;;;;;0.70;0.70;;;22.30;43.80;;;;;;5058811;27;92790;-61
2023/01/12 08:32:09;;;;;;;1.23;0.70;;;22.40;43.80;;;;;;5060562;27;92001;-61
2023/01/12 08:34:38;;;;;;;0.77;0.40;;;22.60;43.70;;;;;;5060378;27;91884;-61
2023/01/12 08:37:08;;;;;;;0.80;0.40;;;22.80;43.60;;;;;;5059519;27;94249;-61
2023/01/12 08:39:36;;;;;;;2.20;0.60;;;22.90;43.50;;;;;;5059648;27;94896;-61
2023/01/12 08:42:04;;;;;;;2.03;0.77;;;23.10;43.40;;;;;;5060774;27;91800;-61
2023/01/12 08:44:33;;;;;;;0.67;0.50;;;23.30;43.40;;;;;;5060720;27;92068;-61
2023/01/12 08:47:01;;;;;;;1.27;0.57;;;23.50;43.30;;;;;;5059537;27;94402;-60
2023/01/12 08:49:31;;;;;;;2.17;0.40;;;23.60;43.20;;;;;;5059718;27;94023;-61
2023/01/12 08:51:59;;;;;;;0.53;0.43;;;23.70;43.10;;;;;;5060602;27;91925;-60
2023/01/12 08:54:28;;;;;;;1.70;0.73;;;23.80;43.10;;;;;;5060202;27;91334;-60
2023/01/12 08:56:56;;;;;;;0.83;0.40;;;23.90;43.00;;;;;;5060121;27;93064;-60
2023/01/12 08:59:24;;;;;;;1.73;0.43;;;23.90;43.00;;;;;;5060296;27;92821;-60
2023/01/12 09:01:52;;;;;;;2.47;0.60;;;23.90;43.00;;;;;;5059789;27;93044;-60
2023/01/12 09:04:20;;;;;;;0.73;0.70;;;23.90;43.00;;;;;;5060117;27;93026;-60
2023/01/12 09:06:50;;;;;;;3.87;0.60;;;23.90;43.00;;;;;;5059399;27;94196;-60
2023/01/12 09:09:18;;;;;;;1.40;0.57;;;23.90;43.00;;;;;;5060265;27;92968;-60
2023/01/12 09:11:47;;;;;;;2.33;0.30;;;23.80;43.00;;;;;;5059609;27;92107;-60
2023/01/12 09:14:15;;;;;;;2.53;0.50;;;23.80;43.00;;;;;;5059265;27;92048;-60
2023/01/12 09:16:43;;;;;;;1.70;1.00;;;23.70;43.00;;;;;;5059473;27;94443;-61
2023/01/12 09:19:12;;;;;;;2.20;0.50;;;23.70;43.00;;;;;;5059950;27;93729;-60
2023/01/12 09:21:40;;;;;;;1.63;0.40;;;23.70;43.10;;;;;;5059956;27;92371;-60
2023/01/12 09:24:10;;;;;;;2.30;0.40;;;23.60;43.10;;;;;;5059843;27;92010;-60
2023/01/12 09:26:39;;;;;;;1.07;0.67;;;23.60;43.10;;;;;;5058594;27;95159;-60
2023/01/12 09:29:07;;;;;;;3.57;0.47;;;23.50;43.10;;;;;;5058881;27;93832;-60
2023/01/12 09:31:36;;;;;;;1.40;0.87;;;23.50;43.20;;;;;;5059468;27;92110;-60
2023/01/12 09:34:04;;;;;;;2.00;0.70;;;23.50;43.20;;;;;;5059745;27;92040;-60
2023/01/12 09:36:33;;;;;;;0.67;0.60;;;23.40;43.20;;;;;;5058844;27;94283;-60
2023/01/12 09:39:01;;;;;;;0.40;0.40;;;23.30;43.20;;;;;;5058979;27;93945;-60
2023/01/12 09:47:07;;;;;;;0.80;0.50;;;23.30;43.30;;;;;;5058954;27;94345;-60
2023/01/12 09:49:39;;;;;;;2.00;0.40;;;23.20;43.20;;;;;;5059184;27;93918;-60
2023/01/12 09:52:12;;;;;;;1.33;0.67;;;23.10;43.20;;;;;;5058524;27;93029;-60
2023/01/12 09:54:40;;;;;;;1.73;0.60;;;23.10;43.30;;;;;;5058310;27;92049;-60
2023/01/12 09:57:19;;;;;;;0.80;0.60;;;23.10;43.30;;;;;;5058961;27;94248;-60
2023/01/12 09:59:57;;;;;;;2.23;0.40;;;23.10;43.40;;;;;;5058903;27;93836;-60
2023/01/12 10:02:26;;;;;;;3.90;0.60;;;23.00;43.30;;;;;;5058862;27;92017;-60
2023/01/12 10:04:54;;;;;;;2.50;0.80;;;23.00;43.30;;;;;;5058833;27;91846;-61
2023/01/12 10:07:22;;;;;;;0.30;0.30;;;23.00;43.40;;;;;;5058425;27;94417;-60
2023/01/12 10:09:50;;;;;;;1.43;0.60;;;22.90;43.40;;;;;;5059250;27;93978;-61
2023/01/12 10:12:22;;;;;;;2.03;0.40;;;22.90;43.40;;;;;;5058603;27;92018;-60
2023/01/12 10:15:11;;;;;;;1.23;0.57;;;22.90;43.40;;;;;;5059322;27;92093;-61
2023/01/12 10:17:43;;;;;;;2.73;0.80;;;22.90;43.50;;;;;;5055201;27;95455;-60
2023/01/12 10:20:22;;;;;;;2.63;0.80;;;22.90;43.50;;;;;;5058509;27;93661;-60
2023/01/12 10:22:52;;;;;;;0.50;0.50;;;22.80;43.40;;;;;;5059311;27;92202;-60
2023/01/12 10:25:28;;;;;;;1.47;0.50;;;22.80;43.50;;;;;;5060380;27;92044;-60
2023/01/12 10:27:59;;;;;;;1.13;1.07;;;22.80;43.50;;;;;;5061459;27;93148;-60
2023/01/12 10:30:30;;;;;;;0.70;0.50;;;22.80;43.50;;;;;;5061900;27;93957;-60
2023/01/12 10:32:58;;;;;;;3.80;0.40;;;22.80;43.50;;;;;;5062583;27;91974;-61
2023/01/12 10:35:26;;;;;;;1.07;0.93;;;22.80;44.20;;;;;;5062659;27;91346;-58
2023/01/12 10:37:55;;;;;;;1.63;0.80;;;22.80;43.70;;;;;;5061923;27;94385;-60
2023/01/12 10:40:28;;;;;;;2.20;0.47;;;22.80;43.70;;;;;;5061824;27;94060;-60
2023/01/12 10:43:22;;;;;;;0.53;0.47;;;22.70;43.60;;;;;;5061792;27;92866;-60
2023/01/12 10:46:05;;;;;;;2.07;0.50;;;22.70;43.70;;;;;;5062421;27;92091;-60
2023/01/12 10:48:34;;;;;;;0.87;0.83;;;22.70;43.70;;;;;;5061757;27;93317;-61
2023/01/12 10:51:02;;;;;;;2.00;0.40;;;22.70;43.70;;;;;;5062044;27;93957;-60
2023/01/12 10:53:35;;;;;;;1.17;0.77;;;22.60;43.80;;;;;;5061953;27;92020;-60
2023/01/12 10:56:12;;;;;;;0.43;0.30;;;22.60;43.80;;;;;;5062122;27;91945;-60
2023/01/12 10:58:41;;;;;;;0.40;0.30;;;22.60;43.80;;;;;;5061351;27;94511;-60
2023/01/12 11:01:14;;;;;;;3.50;0.43;;;22.60;43.80;;;;;;5062005;27;93979;-60
2023/01/12 11:03:42;;;;;;;2.20;0.90;;;22.60;43.80;;;;;;5062172;27;92068;-61
2023/01/12 11:06:15;;;;;;;1.17;0.87;;;22.60;43.80;;;;;;5061897;27;92080;-60
2023/01/12 11:08:43;;;;;;;2.37;0.40;;;22.60;43.80;;;;;;5060745;27;94966;-60
2023/01/12 11:11:16;;;;;;;0.77;0.77;;;22.60;43.80;;;;;;5061315;27;94854;-60
2023/01/12 11:13:45;;;;;;;0.80;0.50;;;22.60;43.80;;;;;;5061813;27;91879;-61
2023/01/12 11:16:18;;;;;;;3.00;0.80;;;22.60;44.10;;;;;;5061895;27;92092;-60
2023/01/12 11:18:48;;;;;;;7.10;1.40;;;22.50;44.40;;;;;;5060679;27;94347;-60
2023/01/12 11:21:18;;;;;;;3.80;0.60;;;22.60;43.80;;;;;;5061181;27;93759;-60
2023/01/12 11:23:52;;;;;;;1.30;0.50;;;22.50;43.80;;;;;;5061632;27;92115;-60
2023/01/12 11:26:23;;;;;;;3.33;0.30;;;22.50;43.80;;;;;;5061738;27;91922;-60
2023/01/12 11:28:54;;;;;;;1.57;0.50;;;22.50;43.80;;;;;;5060708;27;94145;-60
2023/01/12 11:31:24;;;;;;;2.20;0.80;;;22.50;43.80;;;;;;5061232;27;93935;-60
2023/01/12 11:33:55;;;;;;;0.50;0.33;;;22.50;43.80;;;;;;5061194;27;92844;-60
2023/01/12 11:36:24;;;;;;;1.60;0.70;;;22.50;43.80;;;;;;5060743;27;92017;-60
2023/01/12 11:38:54;;;;;;;2.10;0.53;;;22.50;43.90;;;;;;5060458;27;93301;-60
2023/01/12 11:41:25;;;;;;;2.13;0.87;;;22.50;43.90;;;;;;5061240;27;93774;-60
2023/01/12 11:43:57;;;;;;;1.03;0.60;;;22.50;43.90;;;;;;5061411;27;91891;-60
2023/01/12 11:46:28;;;;;;;1.17;0.53;;;22.40;43.90;;;;;;5061157;27;92108;-60
2023/01/12 11:49:03;;;;;;;1.10;0.70;;;22.40;44.00;;;;;;5060438;27;94243;-60
2023/01/12 11:51:31;;;;;;;0.90;0.80;;;22.40;44.00;;;;;;5060998;27;93867;-60
2023/01/12 11:53:59;;;;;;;1.43;0.80;;;22.40;44.00;;;;;;5060845;27;92560;-60
2023/01/12 11:56:51;;;;;;;0.73;0.70;;;22.40;44.10;;;;;;5061215;27;92565;-60
2023/01/12 11:59:22;;;;;;;0.60;0.60;;;22.30;44.10;;;;;;5060309;27;95154;-60
2023/01/12 12:01:54;;;;;;;2.93;1.20;;;22.40;44.10;;;;;;5060329;27;94913;-59
2023/01/12 12:04:30;;;;;;;1.90;0.87;;;22.40;44.10;;;;;;5061136;27;92075;-61
2023/01/12 12:07:19;;;;;;;1.63;0.70;;;22.40;44.10;;;;;;5061096;27;92055;-60
2023/01/12 12:09:55;;;;;;;0.40;0.40;;;22.40;44.10;;;;;;5060512;27;94131;-60
2023/01/12 12:12:25;;;;;;;1.67;0.80;;;22.40;44.10;;;;;;5060013;27;93986;-61
2023/01/12 12:15:03;;;;;;;2.53;0.80;;;22.30;44.10;;;;;;5060792;27;91871;-62
2023/01/12 12:17:36;;;;;;;2.03;0.67;;;22.30;44.10;;;;;;5060727;27;91635;-60
2023/01/12 12:20:12;;;;;;;0.63;0.63;;;22.30;44.10;;;;;;5059850;27;93112;-61
2023/01/12 12:22:48;;;;;;;0.70;0.60;;;22.30;44.10;;;;;;5059781;27;93913;-60
2023/01/12 12:25:22;;;;;;;0.77;0.60;;;22.30;44.10;;;;;;5060046;27;92858;-61
2023/01/12 12:28:00;;;;;;;2.93;1.23;;;22.30;44.10;;;;;;5060492;27;92066;-60
2023/01/12 12:31:03;;;;;;;3.27;1.07;;;22.30;44.10;;;;;;5060097;27;94074;-60
2023/01/12 12:33:40;;;;;;;1.80;0.57;;;22.30;44.20;;;;;;5059978;27;93786;-62
2023/01/12 12:36:15;;;;;;;5.90;1.30;;;22.20;44.80;;;;;;5060241;27;91941;-59
2023/01/12 12:39:01;;;;;;;1.80;1.13;;;22.20;44.20;;;;;;5060417;27;92026;-60
2023/01/12 12:47:47;;;;;;;1.87;1.40;;;22.20;44.20;;;;;;5059914;27;92063;-61
2023/01/12 12:50:20;;;;;;;0.87;0.50;;;22.20;44.20;;;;;;5040442;27;92154;-61
2023/01/12 12:53:17;;;;;;;1.97;0.97;;;22.20;44.20;;;;;;5059436;27;95195;-60
2023/01/12 12:55:45;;;;;;;2.83;1.10;;;22.10;44.20;;;;;;5059924;27;94933;-60
2023/01/12 12:58:39;;;;;;;1.80;1.00;;;22.10;44.20;;;;;;5060564;27;91755;-60
2023/01/12 13:01:44;;;;;;;3.03;1.23;;;22.10;44.30;;;;;;5060372;27;91938;-60
2023/01/12 13:04:13;;;;;;;3.23;1.43;;;22.10;44.30;;;;;;5059517;27;92045;-60
2023/01/12 13:06:46;;;;;;;1.30;1.07;;;22.10;44.40;;;;;;5059605;27;93732;-60
2023/01/12 13:09:36;;;;;;;1.53;0.87;;;22.10;44.40;;;;;;5060028;27;92063;-60
2023/01/12 13:12:32;;;;;;;2.83;1.60;;;22.10;44.50;;;;;;5059775;27;91097;-60
2023/01/12 13:15:22;;;;;;;2.30;0.87;;;22.10;44.50;;;;;;5057612;27;94380;-60
2023/01/12 13:17:51;;;;;;;1.50;0.97;;;22.10;44.50;;;;;;5059665;27;92082;-62
2023/01/12 13:20:51;;;;;;;1.80;0.90;;;22.10;44.60;;;;;;5059998;27;92968;-62
2023/01/12 13:23:45;;;;;;;1.57;0.90;;;22.00;44.60;;;;;;5059774;27;92000;-60
2023/01/12 13:26:41;;;;;;;1.30;0.80;;;22.00;44.60;;;;;;5050814;27;94060;-60
2023/01/12 13:29:39;;;;;;;1.70;0.93;;;22.00;44.60;;;;;;5058526;27;93892;-60
2023/01/12 13:32:50;;;;;;;1.00;0.80;;;22.00;44.70;;;;;;5053764;27;92115;-60
2023/01/12 13:35:54;;;;;;;1.10;0.80;;;21.90;44.60;;;;;;5059575;27;91917;-60
2023/01/12 13:38:46;;;;;;;0.67;0.50;;;22.00;44.70;;;;;;5059210;27;94282;-60
2023/01/12 13:43:13;;;;;;;0.67;0.67;;;21.90;44.60;;;;;;5049772;27;94036;-62
2023/01/12 13:44:06;;;;;;;1.73;0.83;;;22.00;44.70;;;;;;5059182;27;92114;-60
2023/01/12 13:46:36;;;;;;;1.17;0.60;;;22.00;44.70;;;;;;5059717;27;91969;-59
2023/01/12 13:49:04;;;;;;;0.93;0.93;;;21.90;44.70;;;;;;5058354;27;94206;-61
2023/01/12 13:51:34;;;;;;;2.37;0.93;;;22.00;44.70;;;;;;5058535;27;94841;-61